createdAt,value
2017-11-13T00:13:37.656Z,3.8
2017-11-13T00:30:25.151Z,3.8
2017-11-13T00:47:13.051Z,3.7
2017-11-13T01:04:00.723Z,3.7
2017-11-13T01:20:48.393Z,3.7
2017-11-13T01:37:35.681Z,3.7
2017-11-13T01:54:22.940Z,3.7
2017-11-13T02:11:10.045Z,3.7
2017-11-13T02:27:57.092Z,3.7
2017-11-13T02:44:44.062Z,3.7
2017-11-13T03:01:31.112Z,3.7
2017-11-13T03:18:17.920Z,3.7
2017-11-13T03:35:04.969Z,3.7
2017-11-13T03:51:51.680Z,3.7
2017-11-13T04:08:38.556Z,3.7
2017-11-13T04:25:25.287Z,3.7
2017-11-13T04:42:12.023Z,3.7
2017-11-13T04:58:58.718Z,3.7
2017-11-13T05:15:45.348Z,3.7
2017-11-13T05:32:32.036Z,3.7
2017-11-13T05:49:18.780Z,3.7
2017-11-13T06:06:05.572Z,3.7
2017-11-13T06:22:52.328Z,3.6
2017-11-13T06:39:39.170Z,3.6
2017-11-13T06:56:26.033Z,3.6
2017-11-13T07:13:13.064Z,3.7
2017-11-13T07:29:59.313Z,3.7
2017-11-13T07:46:45.929Z,3.8
2017-11-13T08:03:33.205Z,3.8
2017-11-13T08:20:20.318Z,3.8
2017-11-13T08:37:07.478Z,3.8
2017-11-13T08:53:55.057Z,3.9
2017-11-13T09:10:42.048Z,4.0
2017-11-13T09:27:29.340Z,4.0
2017-11-13T09:44:16.604Z,4.1
2017-11-13T10:01:04.234Z,4.3
2017-11-13T10:17:52.247Z,4.4
2017-11-13T10:34:40.220Z,4.4
2017-11-13T10:51:28.135Z,4.5
2017-11-13T11:08:16.209Z,4.6
2017-11-13T11:25:04.344Z,4.6
2017-11-13T11:41:52.611Z,4.6
2017-11-13T11:58:40.871Z,4.6
2017-11-13T12:15:29.322Z,4.5
2017-11-13T12:32:17.826Z,4.5
2017-11-13T12:49:06.375Z,4.5
2017-11-13T13:05:54.863Z,4.5
2017-11-13T13:22:43.434Z,4.5
2017-11-13T13:39:32.065Z,4.5
2017-11-13T13:56:20.734Z,4.5
2017-11-13T14:13:09.256Z,4.5
2017-11-13T14:29:57.872Z,4.5
2017-11-13T14:46:46.519Z,4.5
2017-11-13T15:03:35.012Z,4.5
2017-11-13T15:20:23.633Z,4.4
2017-11-13T15:37:12.972Z,4.4
2017-11-13T15:54:00.802Z,4.4
2017-11-13T16:10:49.376Z,4.4
2017-11-13T16:27:37.987Z,4.3
2017-11-13T16:44:26.550Z,4.3
2017-11-13T17:01:15.189Z,4.3
2017-11-13T17:18:04.053Z,4.3
2017-11-13T17:34:52.392Z,4.3
2017-11-13T17:51:40.842Z,4.2
2017-11-13T18:08:28.607Z,4.2
2017-11-13T18:25:19.167Z,4.2
2017-11-13T18:42:04.014Z,4.2
2017-11-13T18:58:51.838Z,4.2
2017-11-13T19:15:39.557Z,4.2
2017-11-13T19:32:27.239Z,4.2
2017-11-13T19:49:14.783Z,4.2
2017-11-13T20:06:02.521Z,4.2
2017-11-13T20:22:50.108Z,4.2
2017-11-13T20:39:38.800Z,4.1
2017-11-13T20:56:25.558Z,4.1
2017-11-13T21:13:13.225Z,4.1
2017-11-13T21:30:00.998Z,4.1
2017-11-13T21:46:48.896Z,4.1
2017-11-13T22:03:37.085Z,4.1
2017-11-13T22:20:25.194Z,4.1
2017-11-13T22:37:13.229Z,4.1
2017-11-13T22:54:01.353Z,4.1
2017-11-13T23:10:49.331Z,4.1
2017-11-13T23:27:37.439Z,4.0
2017-11-13T23:44:25.456Z,4.0
